Time;durP1;ratioP1;P1;durP2;ratioP2;P2;SDS_P1;SDS_P2;PMS_P1;PMS_P2;Temp;Humidity;BMP_temperature;BMP_pressure;BME280_temperature;BME280_humidity;BME280_pressure;Samples;Min_cycle;Max_cycle;Signal;HPM_P1;HPM_P2
2022/01/28 00:04:44;;;;;;;21.90;11.80;;;;;;;-3.44;86.29;100747.66;10417231;28;20045;-73
2022/01/28 00:09:44;;;;;;;25.35;12.60;;;;;;;-3.01;86.56;100823.69;10417117;28;20030;-73
2022/01/28 00:14:55;;;;;;;22.73;12.32;;;;;;;-3.90;86.27;100683.03;10416354;28;20045;-73
2022/01/28 00:41:14;;;;;;;22.02;11.27;;;;;;;-2.93;86.64;100800.78;10415272;28;20045;-73
2022/01/28 00:46:15;;;;;;;24.75;11.52;;;;;;;-4.00;86.25;100621.25;10416227;28;20489;-73
2022/01/28 00:51:16;;;;;;;21.20;12.10;;;;;;;-3.65;86.26;100681.09;10416828;28;20047;-73
2022/01/28 00:56:17;;;;;;;24.88;13.32;;;;;;;-3.65;86.25;100675.91;10415305;28;20049;-73
2022/01/28 01:01:18;;;;;;;27.60;13.57;;;;;;;-3.18;86.17;100763.81;10415659;28;20038;-73
2022/01/28 01:06:19;;;;;;;23.50;12.57;;;;;;;-3.01;86.32;100767.34;10414348;28;20045;-73
2022/01/28 01:11:22;;;;;;;26.85;13.30;;;;;;;-3.47;85.78;100682.84;10414462;28;20141;-73
2022/01/28 01:16:42;;;;;;;22.50;12.50;;;;;;;-2.73;85.74;100799.00;10414071;28;20056;-74
2022/01/28 01:21:44;;;;;;;24.95;13.20;;;;;;;-3.44;85.54;100672.31;10413647;28;20044;-73
2022/01/28 01:26:45;;;;;;;22.42;12.73;;;;;;;-2.69;85.60;100803.13;10414446;28;20041;-73
2022/01/28 01:31:46;;;;;;;20.45;12.10;;;;;;;-2.83;85.62;100780.41;10413877;28;20064;-73
2022/01/28 01:36:47;;;;;;;21.38;12.55;;;;;;;-2.60;86.05;100803.56;10413745;28;20132;-73
2022/01/28 01:41:56;;;;;;;22.50;12.30;;;;;;;-3.22;85.22;100685.19;10414208;28;20120;-73
2022/01/28 01:52:11;;;;;;;23.13;12.98;;;;;;;-2.69;85.61;100792.72;10414182;28;20038;-74
2022/01/28 01:57:13;;;;;;;29.42;14.55;;;;;;;-4.44;85.20;100504.75;10413316;28;20045;-73
2022/01/28 02:02:14;;;;;;;30.75;14.23;;;;;;;-2.81;85.34;100776.81;10413782;28;20500;-73
2022/01/28 02:07:17;;;;;;;25.83;13.45;;;;;;;-2.63;85.66;100800.25;10412721;28;20038;-73
2022/01/28 02:12:17;;;;;;;23.70;14.55;;;;;;;-2.75;85.47;100783.50;10412553;28;20049;-73
2022/01/28 02:17:18;;;;;;;25.70;13.23;;;;;;;-2.68;85.55;100799.63;10413161;28;20041;-73
2022/01/28 02:22:20;;;;;;;25.38;13.02;;;;;;;-3.15;85.42;100735.94;10412305;28;20049;-73
2022/01/28 02:27:21;;;;;;;24.40;13.65;;;;;;;-2.82;85.16;100789.88;10412764;28;20077;-73
2022/01/28 02:32:22;;;;;;;25.98;12.13;;;;;;;-2.65;84.82;100820.31;10414767;28;20483;-73
2022/01/28 02:37:23;;;;;;;21.27;11.50;;;;;;;-3.10;85.39;100733.16;10410202;28;20128;-75
2022/01/28 02:42:41;;;;;;;20.02;10.73;;;;;;;-2.44;85.54;100824.47;10405672;28;20153;-73
2022/01/28 02:47:44;;;;;;;20.55;10.55;;;;;;;-2.33;84.67;100819.63;10420659;28;20496;-73
2022/01/28 02:53:00;;;;;;;16.40;9.10;;;;;;;-2.25;84.87;100840.03;10420025;28;20092;-73
2022/01/28 02:58:22;;;;;;;21.70;12.00;;;;;;;-2.25;83.92;100834.00;10419439;28;20041;-73
2022/01/28 03:03:24;;;;;;;16.65;8.85;;;;;;;-2.37;83.77;100812.84;10419237;28;20099;-73
2022/01/28 03:08:28;;;;;;;18.90;9.27;;;;;;;-2.41;83.80;100785.31;10420038;28;20401;-73
2022/01/28 03:18:43;;;;;;;16.75;9.65;;;;;;;-2.14;83.09;100811.75;10413108;28;19968;-73
2022/01/28 03:23:44;;;;;;;16.38;9.13;;;;;;;-2.04;82.41;100845.97;10418628;28;20049;-74
2022/01/28 03:28:45;;;;;;;21.10;11.82;;;;;;;-2.03;82.02;100839.00;10403787;28;20129;-73
2022/01/28 03:33:46;;;;;;;24.45;11.57;;;;;;;-3.93;81.49;100532.66;10378164;28;20092;-73
2022/01/28 03:38:48;;;;;;;21.50;12.10;;;;;;;-2.47;81.31;100785.59;10415328;28;20045;-73
2022/01/28 03:43:49;;;;;;;19.15;11.00;;;;;;;-2.61;81.73;100764.63;10411515;28;20083;-73
2022/01/28 03:48:50;;;;;;;19.63;10.98;;;;;;;-1.98;81.31;100852.63;10417740;28;20056;-74
2022/01/28 03:53:51;;;;;;;18.42;10.82;;;;;;;-1.92;81.22;100884.41;10416734;28;20037;-73
2022/01/28 03:58:52;;;;;;;18.20;10.48;;;;;;;-2.10;81.34;100848.88;10416280;28;20566;-73
2022/01/28 04:14:20;;;;;;;20.45;11.85;;;;;;;-2.60;80.96;100748.13;10416727;28;20045;-74
2022/01/28 04:19:21;;;;;;;20.33;11.30;;;;;;;-3.19;81.26;100635.66;10417481;28;20128;-73
2022/01/28 04:24:21;;;;;;;18.30;10.48;;;;;;;-2.60;81.57;100719.50;10415911;28;20128;-71
2022/01/28 04:29:22;;;;;;;20.33;10.88;;;;;;;-1.67;81.12;100889.28;10416497;28;20033;-73
2022/01/28 04:34:24;;;;;;;21.23;11.18;;;;;;;-1.63;80.89;100883.00;10415946;28;20460;-71
2022/01/28 04:44:36;;;;;;;30.80;16.00;;;;;;;-1.56;81.44;100870.50;10373987;28;20045;-70
2022/01/28 04:55:12;;;;;;;30.00;11.93;;;;;;;-1.58;81.53;100846.28;10383047;28;20510;-73
2022/01/28 05:26:23;;;;;;;26.45;14.88;;;;;;;-1.46;81.93;100835.25;10374912;28;20501;-72
2022/01/28 05:31:23;;;;;;;27.75;13.63;;;;;;;-1.34;81.71;100844.19;10373619;28;20192;-75
2022/01/28 05:36:24;;;;;;;22.63;13.52;;;;;;;-2.31;81.47;100647.78;10388135;28;20192;-75
2022/01/28 05:41:24;;;;;;;27.90;14.88;;;;;;;-1.05;80.51;100834.81;10372787;28;20100;-73
2022/01/28 05:46:28;;;;;;;19.35;11.80;;;;;;;-2.07;80.11;100669.94;10373281;28;20513;-74
2022/01/28 05:51:29;;;;;;;21.20;12.30;;;;;;;-0.80;80.40;100881.31;10372669;28;20033;-75
2022/01/28 05:56:31;;;;;;;18.83;10.30;;;;;;;-1.78;79.90;100711.03;10387098;28;20045;-73
2022/01/28 06:01:32;;;;;;;22.20;12.35;;;;;;;-0.89;79.48;100852.28;10372501;28;20041;-73
2022/01/28 06:06:33;;;;;;;16.73;10.85;;;;;;;-0.95;79.81;100851.69;10371940;28;20045;-72
2022/01/28 06:11:34;;;;;;;19.15;12.10;;;;;;;-0.98;79.55;100815.34;10371708;28;20042;-73
2022/01/28 06:16:35;;;;;;;19.88;10.57;;;;;;;-0.42;79.00;100883.59;10372060;28;20033;-73
2022/01/28 06:21:36;;;;;;;20.23;10.93;;;;;;;-1.16;79.24;100730.28;10371816;28;20460;-74
2022/01/28 06:26:37;;;;;;;18.60;10.65;;;;;;;-0.24;79.20;100855.63;10371090;28;20073;-73
2022/01/28 06:31:38;;;;;;;17.83;9.80;;;;;;;-0.62;78.77;100793.38;10371445;28;20037;-73
2022/01/28 06:36:38;;;;;;;19.38;10.18;;;;;;;-0.44;79.46;100824.59;10371686;28;20413;-73
2022/01/28 06:41:39;;;;;;;16.85;9.63;;;;;;;-0.39;78.90;100833.88;10370925;28;20042;-73
2022/01/28 06:46:40;;;;;;;17.02;9.60;;;;;;;-0.19;79.06;100850.16;10371752;28;20060;-73
2022/01/28 06:51:41;;;;;;;19.35;11.18;;;;;;;-0.32;78.37;100818.69;10387375;28;20053;-73
2022/01/28 06:56:42;;;;;;;18.40;10.80;;;;;;;-0.26;78.02;100829.63;10371397;28;20470;-73
2022/01/28 07:01:43;;;;;;;15.55;9.07;;;;;;;0.09;77.46;100875.53;10370947;28;20080;-73
2022/01/28 07:06:43;;;;;;;18.15;10.90;;;;;;;0.01;77.56;100888.22;10372113;28;20415;-73
2022/01/28 07:11:44;;;;;;;18.33;10.70;;;;;;;-0.08;77.95;100847.78;10371805;28;20503;-73
2022/01/28 07:16:45;;;;;;;20.90;10.93;;;;;;;-0.91;77.45;100708.91;10371424;28;20044;-73
2022/01/28 07:21:46;;;;;;;15.57;9.60;;;;;;;-0.80;77.78;100718.75;10376420;28;20124;-73
2022/01/28 07:26:47;;;;;;;28.75;10.15;;;;;;;0.17;77.23;100895.06;10377980;28;20413;-73
2022/01/28 07:31:48;;;;;;;14.15;8.40;;;;;;;-0.30;77.10;100788.97;10377797;28;20087;-73
2022/01/28 07:36:49;;;;;;;14.77;8.80;;;;;;;-0.01;77.04;100818.59;10377131;28;20050;-73
2022/01/28 07:41:50;;;;;;;15.00;9.18;;;;;;;-0.21;77.15;100799.78;10376713;28;20144;-73
2022/01/28 07:46:50;;;;;;;20.85;9.70;;;;;;;0.04;77.46;100822.75;10377302;28;20144;-73
2022/01/28 07:51:51;;;;;;;19.40;10.45;;;;;;;-0.41;76.93;100705.19;10377959;28;20480;-72
2022/01/28 07:56:54;;;;;;;18.63;11.48;;;;;;;0.44;76.42;100853.44;10376678;28;20382;-72
2022/01/28 08:01:54;;;;;;;17.45;10.35;;;;;;;0.29;76.19;100825.59;10376882;28;20038;-72
2022/01/28 08:06:55;;;;;;;19.30;10.85;;;;;;;0.28;76.33;100817.84;10376948;28;20040;-72
2022/01/28 08:11:56;;;;;;;16.67;10.05;;;;;;;0.54;76.81;100839.81;10376584;28;20540;-74
2022/01/28 08:16:57;;;;;;;18.73;10.25;;;;;;;0.52;76.29;100815.56;10375496;28;20543;-72
2022/01/28 08:21:58;;;;;;;16.83;9.75;;;;;;;0.23;75.53;100787.59;10375394;28;20046;-74
2022/01/28 08:26:59;;;;;;;23.83;11.10;;;;;;;0.50;76.30;100833.09;10375817;28;20456;-72
2022/01/28 08:32:00;;;;;;;17.95;11.55;;;;;;;-0.26;76.04;100667.75;10375410;28;20033;-73
2022/01/28 08:37:03;;;;;;;17.17;10.43;;;;;;;0.71;75.97;100803.03;10390003;28;20052;-73
2022/01/28 08:42:04;;;;;;;16.27;9.55;;;;;;;0.75;75.24;100806.28;10375029;28;20108;-72
2022/01/28 08:47:05;;;;;;;17.33;10.20;;;;;;;0.84;75.63;100769.97;10375000;28;20463;-73
2022/01/28 08:52:06;;;;;;;19.10;10.15;;;;;;;0.81;75.05;100762.31;10374428;28;20128;-73
2022/01/28 08:57:08;;;;;;;23.73;10.43;;;;;;;0.99;74.78;100754.25;10374648;28;20037;-73
2022/01/28 09:02:09;;;;;;;20.65;11.15;;;;;;;1.29;74.13;100775.88;10373867;28;20049;-73
2022/01/28 09:07:10;;;;;;;27.48;11.35;;;;;;;0.75;73.88;100665.09;10374282;28;20042;-73
2022/01/28 09:17:30;;;;;;;17.13;10.18;;;;;;;1.56;72.95;100769.81;10373648;28;20046;-73
2022/01/28 09:22:31;;;;;;;18.48;10.07;;;;;;;0.79;72.28;100640.44;10373481;28;20041;-73
2022/01/28 09:27:32;;;;;;;18.65;10.40;;;;;;;1.34;72.49;100725.84;10373576;28;20064;-73
2022/01/28 09:32:33;;;;;;;21.42;11.18;;;;;;;1.58;73.29;100755.66;10372963;28;20064;-73
2022/01/28 09:37:34;;;;;;;19.63;12.05;;;;;;;0.65;73.63;100591.63;10373081;28;20042;-74
2022/01/28 09:42:40;;;;;;;21.10;12.15;;;;;;;1.77;73.63;100750.06;10372192;28;20053;-75
2022/01/28 09:47:41;;;;;;;19.70;12.10;;;;;;;1.74;72.87;100734.53;10372688;28;20054;-73
2022/01/28 09:52:42;;;;;;;20.42;12.25;;;;;;;1.43;72.96;100672.03;10387483;28;20049;-73
2022/01/28 09:57:43;;;;;;;27.50;12.63;;;;;;;1.94;73.47;100753.31;10372596;28;20103;-73
2022/01/28 10:02:59;;;;;;;25.88;13.32;;;;;;;1.06;73.53;100609.88;10371980;28;20044;-74
2022/01/28 10:08:19;;;;;;;21.85;12.68;;;;;;;1.96;71.93;100762.75;10372055;28;20180;-73
2022/01/28 10:13:34;;;;;;;22.52;12.80;;;;;;;1.87;72.42;100734.56;10372333;28;20123;-73
2022/01/28 10:18:36;;;;;;;19.15;11.70;;;;;;;1.90;72.53;100723.03;10387665;28;20045;-73
2022/01/28 10:23:37;;;;;;;25.08;12.85;;;;;;;1.93;71.62;100705.31;10371964;28;20046;-77
2022/01/28 10:28:51;;;;;;;25.90;11.95;;;;;;;2.34;71.15;100748.03;10371967;28;20041;-73
2022/01/28 10:34:09;;;;;;;22.67;13.43;;;;;;;2.16;72.30;100697.69;10371760;28;20046;-73
2022/01/28 10:39:15;;;;;;;21.75;13.20;;;;;;;2.32;72.77;100735.00;10372535;28;20046;-73
2022/01/28 10:44:16;;;;;;;25.98;13.60;;;;;;;2.20;73.14;100710.47;10371985;28;20073;-73
2022/01/28 10:49:17;;;;;;;25.48;15.68;;;;;;;2.31;72.91;100729.88;10371036;28;20060;-73
2022/01/28 10:54:20;;;;;;;22.23;13.18;;;;;;;1.99;73.18;100697.06;10375600;28;20402;-73
2022/01/28 10:59:27;;;;;;;21.63;12.45;;;;;;;2.22;72.77;100742.66;10378748;28;20560;-73
2022/01/28 11:04:28;;;;;;;25.50;13.20;;;;;;;2.18;72.96;100741.19;10395269;28;20065;-73
2022/01/28 11:09:30;;;;;;;32.33;12.45;;;;;;;1.10;72.85;100545.09;10379427;28;20396;-73
2022/01/28 11:14:31;;;;;;;22.55;12.00;;;;;;;1.73;73.07;100649.03;10378735;28;20069;-73
2022/01/28 11:19:36;;;;;;;23.30;12.98;;;;;;;1.95;73.63;100695.59;10378572;28;20074;-73
2022/01/28 11:24:50;;;;;;;19.58;12.23;;;;;;;2.07;73.00;100714.88;10393863;28;20096;-73
2022/01/28 11:30:19;;;;;;;23.88;13.25;;;;;;;2.04;73.84;100684.50;10378446;28;20038;-73
2022/01/28 11:35:21;;;;;;;22.67;12.18;;;;;;;1.69;73.54;100657.22;10377693;28;20145;-74
2022/01/28 11:40:23;;;;;;;26.38;12.15;;;;;;;1.44;73.46;100618.75;10377871;28;20038;-73
2022/01/28 11:45:24;;;;;;;24.60;13.20;;;;;;;2.08;73.26;100706.06;10377778;28;20065;-73
2022/01/28 11:50:25;;;;;;;31.95;15.90;;;;;;;2.07;72.49;100677.38;10377259;28;20095;-73
2022/01/28 11:55:26;;;;;;;27.73;13.23;;;;;;;2.09;72.37;100712.97;10377054;28;20042;-73
2022/01/28 12:00:33;;;;;;;27.42;15.38;;;;;;;2.23;73.18;100712.88;10392066;28;20072;-77
2022/01/28 12:05:49;;;;;;;28.00;16.13;;;;;;;1.97;72.19;100640.44;10375837;28;20045;-73
2022/01/28 12:10:51;;;;;;;28.20;14.80;;;;;;;0.81;72.81;100448.50;10376798;28;20100;-73
2022/01/28 12:16:00;;;;;;;26.92;16.23;;;;;;;2.60;73.71;100707.69;10375644;28;20050;-74
2022/01/28 12:21:01;;;;;;;31.17;17.05;;;;;;;2.81;73.14;100709.75;10414008;28;20444;-74
2022/01/28 12:26:02;;;;;;;35.97;17.23;;;;;;;2.70;72.19;100681.69;10411327;28;20041;-74
2022/01/28 12:31:03;;;;;;;30.15;16.80;;;;;;;3.03;72.32;100724.81;10391276;28;20033;-74
2022/01/28 12:36:25;;;;;;;27.92;15.93;;;;;;;2.28;72.02;100590.22;10407144;28;20044;-73
2022/01/28 12:41:29;;;;;;;33.22;17.52;;;;;;;2.96;71.82;100716.53;10406099;28;20410;-73
2022/01/28 12:46:31;;;;;;;27.60;15.90;;;;;;;2.97;72.29;100734.81;10406397;28;20088;-73
2022/01/28 12:51:37;;;;;;;25.63;15.15;;;;;;;3.00;72.39;100739.00;10391245;28;20401;-73
2022/01/28 12:56:40;;;;;;;27.52;15.43;;;;;;;2.74;71.86;100728.56;10415516;28;20124;-73
2022/01/28 13:01:41;;;;;;;26.25;15.57;;;;;;;2.89;72.35;100750.25;10414928;28;20488;-73
2022/01/28 13:06:54;;;;;;;34.30;18.20;;;;;;;2.83;72.42;100762.97;10430254;28;20046;-73
2022/01/28 13:11:57;;;;;;;33.00;17.75;;;;;;;2.25;72.90;100690.03;10415015;28;20127;-71
2022/01/28 13:16:59;;;;;;;36.33;19.17;;;;;;;2.65;73.22;100763.31;10414683;28;20132;-73
2022/01/28 13:22:00;;;;;;;29.55;17.35;;;;;;;1.27;73.55;100544.81;10405449;28;20048;-72
2022/01/28 13:27:04;;;;;;;32.45;18.55;;;;;;;2.34;74.39;100766.38;10373528;28;20034;-72
2022/01/28 13:32:25;;;;;;;29.77;15.98;;;;;;;2.17;74.96;100784.06;10373530;28;20072;-74
2022/01/28 13:37:47;;;;;;;29.30;15.25;;;;;;;1.48;75.57;100678.66;10377033;28;20044;-73
2022/01/28 13:43:12;;;;;;;25.15;13.50;;;;;;;1.83;75.56;100773.22;10414454;28;20057;-76
2022/01/28 13:48:20;;;;;;;25.15;12.40;;;;;;;1.44;76.07;100737.41;10383124;28;20091;-74
2022/01/28 13:58:28;;;;;;;13.45;7.93;;;;;;;0.20;75.77;100593.59;10413427;28;20042;-74
2022/01/28 14:03:29;;;;;;;12.20;7.22;;;;;;;0.59;75.18;100675.69;10414161;28;20068;-74
2022/01/28 14:08:48;;;;;;;13.98;6.18;;;;;;;0.57;75.85;100682.78;10412676;28;20489;-74
2022/01/28 14:14:15;;;;;;;11.45;5.85;;;;;;;0.37;75.73;100671.78;10411668;28;20528;-74
2022/01/28 14:19:16;;;;;;;11.23;5.53;;;;;;;0.74;75.62;100768.84;10410832;28;20132;-75
2022/01/28 14:24:20;;;;;;;12.48;6.95;;;;;;;0.03;75.14;100675.63;10409595;28;20125;-76
2022/01/28 14:29:47;;;;;;;10.07;7.22;;;;;;;-0.16;75.51;100654.97;10415230;28;20045;-74
2022/01/28 14:34:48;;;;;;;12.07;6.38;;;;;;;0.62;75.58;100824.50;10398283;28;20045;-72
2022/01/28 14:39:50;;;;;;;16.08;7.63;;;;;;;0.52;75.77;100808.53;10379940;28;20056;-73
2022/01/28 14:44:51;;;;;;;13.07;6.20;;;;;;;0.21;75.98;100793.88;10379999;28;20576;-73
2022/01/28 14:49:52;;;;;;;12.45;7.07;;;;;;;0.12;76.46;100791.75;10379851;28;20053;-76
2022/01/28 14:54:53;;;;;;;11.95;6.40;;;;;;;0.02;76.90;100790.63;10379671;28;20054;-73
2022/01/28 14:59:54;;;;;;;16.30;6.90;;;;;;;-0.06;77.30;100820.66;10412050;28;20041;-73
2022/01/28 15:04:57;;;;;;;13.98;7.63;;;;;;;-0.67;77.70;100709.28;10418680;28;20041;-73
2022/01/28 15:10:00;;;;;;;16.02;8.95;;;;;;;-0.86;77.79;100695.63;10419084;28;20037;-73
2022/01/28 15:15:01;;;;;;;14.10;7.93;;;;;;;-1.15;77.68;100651.97;10417810;28;20444;-73
2022/01/28 15:20:02;;;;;;;14.05;7.75;;;;;;;-1.33;77.63;100633.94;10419894;28;20048;-73
2022/01/28 15:25:04;;;;;;;15.27;7.47;;;;;;;-0.13;78.64;100837.59;10419552;28;20037;-73
2022/01/28 15:30:19;;;;;;;12.90;6.68;;;;;;;-0.32;78.59;100814.31;10419596;28;20096;-73
2022/01/28 15:40:30;;;;;;;12.80;7.07;;;;;;;-0.86;78.18;100750.41;10417098;28;20489;-71
2022/01/28 15:45:33;;;;;;;12.15;6.05;;;;;;;-0.27;78.74;100846.22;10417561;28;20053;-74
2022/01/28 15:50:34;;;;;;;12.02;5.65;;;;;;;-0.48;78.35;100827.38;10414074;28;20042;-73
2022/01/28 15:55:35;;;;;;;13.75;6.13;;;;;;;-0.57;78.66;100853.13;10415944;28;20075;-70
2022/01/28 16:00:36;;;;;;;13.10;6.22;;;;;;;-0.69;79.51;100849.41;10430924;28;20047;-72
2022/01/28 16:05:37;;;;;;;11.68;5.75;;;;;;;-0.95;80.00;100809.94;10416220;28;20053;-74
2022/01/28 16:10:46;;;;;;;10.88;5.80;;;;;;;-0.69;79.83;100859.84;10407049;28;20080;-73
2022/01/28 16:20:48;;;;;;;11.68;5.75;;;;;;;-1.28;80.08;100764.84;10411777;28;20131;-74
2022/01/28 16:25:49;;;;;;;9.90;5.32;;;;;;;-1.43;79.98;100749.09;10405743;28;20037;-74
2022/01/28 16:30:53;;;;;;;10.52;5.75;;;;;;;-0.78;80.47;100858.59;10411865;28;20064;-74
2022/01/28 16:35:55;;;;;;;12.88;6.00;;;;;;;-0.99;80.34;100823.22;10406926;28;20038;-74
2022/01/28 16:40:56;;;;;;;8.63;4.90;;;;;;;-0.86;80.31;100878.19;10408255;28;20087;-74
2022/01/28 16:45:58;;;;;;;9.60;5.75;;;;;;;-1.41;80.35;100795.91;10407464;28;20075;-74
2022/01/28 16:50:59;;;;;;;10.27;5.40;;;;;;;-2.10;80.68;100697.91;10408115;28;20048;-74
2022/01/28 16:56:00;;;;;;;12.00;5.65;;;;;;;-2.94;80.70;100590.28;10408935;28;20477;-75
2022/01/28 17:01:00;;;;;;;11.40;6.03;;;;;;;-2.89;80.97;100601.31;10404925;28;20040;-73
2022/01/28 17:06:05;;;;;;;9.85;6.00;;;;;;;-1.25;81.19;100869.78;10407610;28;20041;-73
2022/01/28 17:16:23;;;;;;;17.00;9.18;;;;;;;-2.05;81.14;100773.16;10405519;28;20520;-73
2022/01/28 17:21:24;;;;;;;29.20;16.00;;;;;;;-1.52;81.55;100872.03;10423534;28;20033;-73
2022/01/28 17:26:25;;;;;;;28.95;13.77;;;;;;;-2.43;81.78;100737.69;10407375;28;20037;-73
2022/01/28 17:31:25;;;;;;;19.83;10.27;;;;;;;-1.76;81.83;100865.47;10408061;28;20049;-72
2022/01/28 17:36:26;;;;;;;17.90;8.90;;;;;;;-2.44;82.18;100774.22;10406673;28;20132;-72
2022/01/28 17:41:27;;;;;;;15.20;9.13;;;;;;;-4.94;80.96;100383.44;10406060;28;20041;-74
2022/01/28 17:46:28;;;;;;;14.95;9.05;;;;;;;-2.87;81.39;100791.84;10409538;28;20045;-72
2022/01/28 17:51:30;;;;;;;14.85;8.98;;;;;;;-2.12;82.14;100902.78;10409630;28;20488;-72
2022/01/28 17:56:31;;;;;;;14.82;8.95;;;;;;;-2.13;82.37;100911.50;10407710;28;20060;-73
2022/01/28 18:01:32;;;;;;;15.43;8.88;;;;;;;-2.23;82.11;100885.06;10397606;28;20041;-72
2022/01/28 18:06:33;;;;;;;11.90;7.07;;;;;;;-2.60;81.88;100892.00;10405266;28;20446;-72
2022/01/28 18:11:34;;;;;;;15.27;6.60;;;;;;;-2.75;82.69;100903.09;10411699;28;20041;-73
2022/01/28 18:16:35;;;;;;;11.77;6.18;;;;;;;-4.20;82.35;100669.66;10402355;28;20524;-71
2022/01/28 18:21:36;;;;;;;11.93;6.88;;;;;;;-3.29;82.30;100834.44;10403983;28;20044;-72
2022/01/28 18:26:37;;;;;;;14.35;6.95;;;;;;;-3.98;82.63;100731.88;10396353;28;20041;-71
2022/01/28 18:31:38;;;;;;;16.50;6.90;;;;;;;-3.44;82.91;100848.94;10409578;28;20049;-71
2022/01/28 18:36:39;;;;;;;12.40;6.82;;;;;;;-4.60;83.29;100640.25;10386743;28;20054;-71
2022/01/28 18:41:43;;;;;;;13.85;7.22;;;;;;;-3.25;83.64;100875.84;10387822;28;20408;-72
2022/01/28 18:46:54;;;;;;;13.88;7.13;;;;;;;-3.40;83.30;100860.91;10386889;28;20501;-72
2022/01/28 18:51:55;;;;;;;11.88;7.05;;;;;;;-3.20;83.84;100893.84;10383389;28;20493;-72
2022/01/28 18:56:56;;;;;;;16.90;6.60;;;;;;;-4.26;83.74;100750.31;10404934;28;20131;-71
2022/01/28 19:01:57;;;;;;;14.98;6.32;;;;;;;-3.41;84.42;100890.41;10411611;28;20040;-71
2022/01/28 19:06:58;;;;;;;11.52;6.45;;;;;;;-3.50;84.22;100883.84;10413147;28;20397;-71
2022/01/28 19:11:59;;;;;;;15.95;6.45;;;;;;;-3.63;84.58;100861.03;10411731;28;20120;-72
2022/01/28 19:17:00;;;;;;;21.90;7.05;;;;;;;-4.54;83.76;100716.09;10415185;28;20052;-71
2022/01/28 19:22:00;;;;;;;12.70;6.82;;;;;;;-3.79;83.75;100885.06;10395712;28;20130;-71
2022/01/28 19:27:01;;;;;;;12.25;6.63;;;;;;;-4.41;83.00;100777.72;10378358;28;20629;-71
2022/01/28 19:32:03;;;;;;;17.40;9.05;;;;;;;-5.82;84.25;100560.53;10378224;28;20049;-72
2022/01/28 19:37:04;;;;;;;19.65;8.23;;;;;;;-4.85;84.10;100719.88;10377934;28;20042;-71
2022/01/28 19:42:06;;;;;;;13.45;7.13;;;;;;;-4.10;84.56;100845.69;10418301;28;20061;-71
2022/01/28 19:47:06;;;;;;;12.82;7.20;;;;;;;-4.57;84.82;100770.66;10417904;28;20524;-71
2022/01/28 19:52:07;;;;;;;19.30;7.00;;;;;;;-4.26;84.39;100842.88;10418947;28;20052;-71
2022/01/28 19:57:08;;;;;;;13.82;6.80;;;;;;;-4.94;84.42;100738.38;10417805;28;20045;-71
2022/01/28 20:02:09;;;;;;;17.13;6.80;;;;;;;-4.08;84.71;100881.03;10417362;28;20528;-71
2022/01/28 20:07:10;;;;;;;16.70;7.15;;;;;;;-4.16;84.97;100862.34;10417870;28;20485;-71
2022/01/28 20:12:13;;;;;;;17.15;8.50;;;;;;;-4.05;85.48;100867.09;10414348;28;20136;-71
2022/01/28 20:17:14;;;;;;;15.75;7.78;;;;;;;-4.90;84.56;100751.19;10414826;28;20041;-72
2022/01/28 20:22:15;;;;;;;19.60;7.50;;;;;;;-4.30;83.67;100862.91;10416606;28;20049;-71
2022/01/28 20:27:16;;;;;;;14.63;7.43;;;;;;;-4.91;83.73;100823.78;10415659;28;20099;-71
2022/01/28 20:32:17;;;;;;;13.07;7.20;;;;;;;-5.24;85.11;100755.94;10416205;28;20047;-71
2022/01/28 20:37:17;;;;;;;14.30;6.15;;;;;;;-4.71;84.19;100847.19;10416042;28;20087;-72
2022/01/28 20:42:18;;;;;;;13.52;6.85;;;;;;;-4.62;84.89;100861.56;10415034;28;20072;-70
2022/01/28 20:47:19;;;;;;;13.45;6.80;;;;;;;-4.43;85.00;100895.38;10415541;28;20046;-70
2022/01/28 20:52:20;;;;;;;13.50;6.93;;;;;;;-5.48;85.59;100701.59;10415612;28;20083;-71
2022/01/28 20:57:21;;;;;;;10.98;6.65;;;;;;;-4.38;84.83;100868.38;10416392;28;20539;-71
2022/01/28 21:02:22;;;;;;;19.00;6.68;;;;;;;-4.89;85.04;100786.53;10416557;28;20504;-70
2022/01/28 21:07:26;;;;;;;15.60;7.03;;;;;;;-4.99;84.19;100753.28;10415735;28;20038;-70
2022/01/28 21:12:27;;;;;;;14.43;6.68;;;;;;;-5.24;83.98;100759.38;10414665;28;20099;-71
2022/01/28 21:17:27;;;;;;;16.13;7.22;;;;;;;-5.60;85.45;100683.91;10414467;28;20041;-70
2022/01/28 21:22:28;;;;;;;13.13;7.22;;;;;;;-5.65;85.56;100650.47;10413227;28;20504;-73
2022/01/28 21:27:29;;;;;;;13.98;6.93;;;;;;;-6.02;85.81;100548.38;10415179;28;20045;-71
2022/01/28 21:32:30;;;;;;;13.40;6.80;;;;;;;-5.18;85.44;100671.09;10413838;28;20510;-70
2022/01/28 21:37:31;;;;;;;14.63;7.18;;;;;;;-4.55;85.65;100766.22;10412772;28;20041;-71
2022/01/28 21:42:32;;;;;;;13.70;6.40;;;;;;;-4.19;84.96;100800.19;10414618;28;20061;-71
2022/01/28 21:47:33;;;;;;;13.98;6.60;;;;;;;-4.82;85.57;100678.28;10413631;28;20048;-70
2022/01/28 21:52:33;;;;;;;14.85;7.25;;;;;;;-3.93;85.47;100814.69;10413179;28;20037;-70
2022/01/28 21:57:34;;;;;;;18.33;6.88;;;;;;;-5.56;85.71;100548.34;10412827;28;20084;-71
2022/01/28 22:02:35;;;;;;;14.10;7.22;;;;;;;-3.81;84.96;100837.53;10412829;28;20046;-71
2022/01/28 22:07:36;;;;;;;14.85;8.98;;;;;;;-4.30;85.37;100760.91;10413077;28;20119;-70
2022/01/28 22:12:37;;;;;;;19.30;9.27;;;;;;;-4.51;85.87;100713.38;10413128;28;20041;-70
2022/01/28 22:17:38;;;;;;;19.98;10.15;;;;;;;-4.13;86.08;100769.69;10413113;28;20494;-71
2022/01/28 22:22:40;;;;;;;26.13;10.00;;;;;;;-4.60;85.65;100681.72;10413834;28;20045;-71
2022/01/28 22:27:41;;;;;;;21.88;10.90;;;;;;;-3.50;86.10;100844.03;10413296;28;20113;-71
2022/01/28 22:32:46;;;;;;;24.77;12.20;;;;;;;-3.89;85.73;100756.56;10412818;28;20128;-71
2022/01/28 22:37:47;;;;;;;26.45;13.48;;;;;;;-3.31;85.26;100831.94;10412801;28;20045;-71
2022/01/28 22:42:49;;;;;;;26.00;13.00;;;;;;;-3.71;85.30;100753.19;10411646;28;20577;-71
2022/01/28 22:47:50;;;;;;;33.38;13.77;;;;;;;-3.71;85.21;100716.84;10412269;28;20044;-71
2022/01/28 22:52:51;;;;;;;29.67;13.40;;;;;;;-3.01;85.53;100803.72;10419969;28;20048;-71
2022/01/28 22:57:52;;;;;;;27.60;13.13;;;;;;;-2.78;85.09;100828.69;10420803;28;20041;-71
2022/01/28 23:02:53;;;;;;;35.15;15.13;;;;;;;-2.95;85.26;100794.81;10419772;28;20405;-71
2022/01/28 23:07:54;;;;;;;34.45;15.90;;;;;;;-2.64;85.04;100837.59;10420624;28;20045;-71
2022/01/28 23:12:55;;;;;;;31.70;16.23;;;;;;;-3.25;84.80;100732.94;10419677;28;20037;-71
2022/01/28 23:17:56;;;;;;;36.65;18.08;;;;;;;-2.61;85.18;100845.25;10418401;28;20148;-71
2022/01/28 23:22:56;;;;;;;35.10;16.88;;;;;;;-2.96;85.12;100784.47;10419336;28;20045;-71
2022/01/28 23:27:57;;;;;;;33.97;16.02;;;;;;;-2.93;85.11;100785.19;10413246;28;20056;-71
2022/01/28 23:32:58;;;;;;;36.47;17.25;;;;;;;-2.97;85.29;100769.78;10395556;28;20053;-71
2022/01/28 23:38:00;;;;;;;36.72;16.40;;;;;;;-2.65;85.83;100815.09;10377244;28;20107;-71
2022/01/28 23:43:01;;;;;;;33.47;16.50;;;;;;;-2.71;85.85;100807.59;10377814;28;20057;-72
2022/01/28 23:48:02;;;;;;;36.25;16.88;;;;;;;-3.32;85.66;100684.78;10377029;28;20061;-71
2022/01/28 23:53:03;;;;;;;36.20;17.58;;;;;;;-2.46;85.37;100815.91;10376764;28;20099;-72
2022/01/28 23:58:04;;;;;;;35.65;17.15;;;;;;;-2.45;85.24;100812.41;10376447;28;20041;-71
